createdAt,value
2022-08-05T00:01:35.522Z,3.07
2022-08-05T00:04:03.833Z,3.40
2022-08-05T00:06:33.409Z,2.90
2022-08-05T00:09:03.632Z,3.43
2022-08-05T00:11:35.132Z,3.53
2022-08-05T00:14:17.014Z,3.10
2022-08-05T00:16:52.511Z,2.93
2022-08-05T00:19:21.549Z,3.00
2022-08-05T00:21:49.421Z,3.47
2022-08-05T00:24:24.065Z,3.63
2022-08-05T00:26:52.979Z,3.53
2022-08-05T00:29:22.554Z,3.67
2022-08-05T00:32:13.364Z,3.33
2022-08-05T00:34:53.878Z,3.50
2022-08-05T00:37:35.647Z,3.60
2022-08-05T00:40:17.957Z,3.20
2022-08-05T00:43:01.179Z,3.73
2022-08-05T00:45:43.096Z,3.50
2022-08-05T00:48:16.167Z,4.10
2022-08-05T00:50:46.027Z,3.37
2022-08-05T00:54:00.359Z,3.60
2022-08-05T00:56:07.732Z,3.50
2022-08-05T00:58:34.787Z,3.60
2022-08-05T01:01:08.654Z,3.70
2022-08-05T01:03:37.079Z,3.97
2022-08-05T01:06:05.477Z,3.43
2022-08-05T01:08:43.321Z,3.53
2022-08-05T01:11:22.089Z,3.43
2022-08-05T01:14:17.996Z,3.20
2022-08-05T01:17:28.953Z,4.17
2022-08-05T01:20:20.908Z,3.47
2022-08-05T01:23:05.891Z,3.47
2022-08-05T01:26:16.217Z,3.20
2022-08-05T01:28:51.949Z,3.30
2022-08-05T01:31:45.051Z,3.90
2022-08-05T01:34:35.904Z,3.40
2022-08-05T01:37:24.974Z,2.70
2022-08-05T01:39:58.712Z,3.30
2022-08-05T01:42:27.813Z,3.00
2022-08-05T01:44:56.959Z,3.80
2022-08-05T01:47:39.709Z,3.73
2022-08-05T01:50:28.770Z,3.40
2022-08-05T01:53:02.348Z,3.83
2022-08-05T01:55:32.521Z,3.60
2022-08-05T01:58:11.344Z,3.43
2022-08-05T02:00:48.961Z,4.40
2022-08-05T02:03:34.135Z,3.80
2022-08-05T02:06:33.654Z,4.30
2022-08-05T02:08:58.281Z,4.33
2022-08-05T02:11:33.349Z,4.23
2022-08-05T02:14:12.401Z,4.83
2022-08-05T02:16:52.906Z,4.30
2022-08-05T02:19:36.427Z,5.33
2022-08-05T02:22:26.394Z,4.93
2022-08-05T02:25:02.479Z,5.80
2022-08-05T02:27:59.274Z,5.83
2022-08-05T02:30:19.673Z,6.27
2022-08-05T02:32:50.697Z,7.10
2022-08-05T02:35:28.056Z,8.57
2022-08-05T02:38:02.335Z,8.63
2022-08-05T02:40:30.903Z,11.03
2022-08-05T02:42:58.785Z,10.37
2022-08-05T02:45:28.423Z,11.20
2022-08-05T02:48:06.593Z,10.60
2022-08-05T02:50:43.944Z,12.07
2022-08-05T02:53:18.969Z,12.00
2022-08-05T02:55:59.619Z,11.23
2022-08-05T02:58:30.055Z,12.37
2022-08-05T03:01:01.894Z,13.03
2022-08-05T03:03:34.372Z,14.50
2022-08-05T03:06:56.392Z,16.23
2022-08-05T03:09:04.739Z,16.27
2022-08-05T03:11:54.363Z,16.87
2022-08-05T03:14:18.571Z,17.00
2022-08-05T03:16:46.786Z,17.60
2022-08-05T03:19:29.434Z,19.43
2022-08-05T03:22:01.426Z,17.90
2022-08-05T03:24:30.815Z,18.50
2022-08-05T03:26:59.017Z,19.30
2022-08-05T03:29:45.444Z,18.20
2022-08-05T03:32:15.637Z,18.80
2022-08-05T03:34:50.573Z,17.77
2022-08-05T03:37:19.157Z,19.07
2022-08-05T03:40:01.178Z,18.90
2022-08-05T03:42:32.363Z,17.70
2022-08-05T03:45:22.399Z,18.20
2022-08-05T03:47:50.777Z,17.23
2022-08-05T03:50:18.044Z,16.67
2022-08-05T03:55:00.288Z,16.83
2022-08-05T03:56:04.692Z,18.20
2022-08-05T03:58:37.992Z,18.00
2022-08-05T04:01:11.202Z,18.13
2022-08-05T04:04:10.341Z,19.10
2022-08-05T04:06:29.735Z,18.37
2022-08-05T04:08:57.394Z,18.30
2022-08-05T04:11:25.333Z,20.13
2022-08-05T04:14:18.133Z,18.93
2022-08-05T04:16:45.529Z,20.27
2022-08-05T04:19:13.205Z,18.87
2022-08-05T04:22:08.179Z,19.03
2022-08-05T04:24:27.810Z,20.53
2022-08-05T04:26:54.732Z,20.30
2022-08-05T04:29:25.006Z,21.03
2022-08-05T04:31:54.119Z,21.67
2022-08-05T04:34:32.575Z,22.27
2022-08-05T04:37:01.361Z,22.53
2022-08-05T04:39:30.794Z,25.13
2022-08-05T04:41:59.092Z,24.73
2022-08-05T04:44:30.025Z,25.20
2022-08-05T04:46:59.004Z,26.50
2022-08-05T04:49:38.882Z,26.50
2022-08-05T04:52:13.677Z,24.87
2022-08-05T04:54:41.977Z,23.60
2022-08-05T04:57:08.706Z,25.13
2022-08-05T04:59:38.745Z,25.40
2022-08-05T05:02:36.948Z,24.17
2022-08-05T05:05:02.381Z,29.37
2022-08-05T05:07:32.457Z,27.07
2022-08-05T05:10:02.018Z,26.30
2022-08-05T05:12:29.305Z,24.27
2022-08-05T05:14:56.046Z,28.40
2022-08-05T05:17:24.608Z,33.53
2022-08-05T05:20:10.713Z,32.03
2022-08-05T05:22:40.729Z,33.17
2022-08-05T05:25:16.814Z,33.20
2022-08-05T05:27:53.670Z,33.50
2022-08-05T05:30:30.701Z,34.90
2022-08-05T05:33:08.824Z,35.67
2022-08-05T05:35:44.409Z,40.20
2022-08-05T05:38:12.861Z,40.90
2022-08-05T05:40:48.317Z,39.80
2022-08-05T05:43:28.167Z,42.03
2022-08-05T05:46:05.124Z,40.63
2022-08-05T05:48:32.548Z,37.97
2022-08-05T05:51:13.024Z,37.90
2022-08-05T05:53:58.058Z,37.30
2022-08-05T05:56:33.004Z,38.03
2022-08-05T05:59:07.771Z,39.30
2022-08-05T06:01:37.783Z,38.83
2022-08-05T06:04:07.175Z,39.13
2022-08-05T06:06:34.958Z,39.07
2022-08-05T06:09:05.409Z,38.83
2022-08-05T06:11:32.916Z,39.03
2022-08-05T06:14:00.791Z,37.77
2022-08-05T06:16:36.621Z,39.20
2022-08-05T06:19:05.499Z,42.50
2022-08-05T06:21:35.945Z,42.53
2022-08-05T06:24:06.255Z,43.13
2022-08-05T06:26:37.970Z,42.13
2022-08-05T06:29:06.906Z,44.30
2022-08-05T06:31:51.942Z,44.10
2022-08-05T06:34:19.920Z,42.30
2022-08-05T06:36:57.602Z,41.20
2022-08-05T06:39:27.110Z,43.43
2022-08-05T06:41:55.720Z,43.03
2022-08-05T06:44:24.129Z,47.97
2022-08-05T06:46:52.782Z,47.50
2022-08-05T06:50:00.569Z,49.83
2022-08-05T06:52:37.022Z,48.87
2022-08-05T06:54:55.374Z,48.50
2022-08-05T06:57:57.202Z,46.13
2022-08-05T07:00:10.494Z,46.40
2022-08-05T07:02:43.210Z,46.10
2022-08-05T07:05:14.297Z,44.97
2022-08-05T07:07:48.884Z,43.50
2022-08-05T07:10:16.354Z,45.20
2022-08-05T07:13:02.106Z,43.97
2022-08-05T07:16:00.782Z,40.90
2022-08-05T07:18:30.408Z,42.70
2022-08-05T07:20:57.724Z,41.00
2022-08-05T07:23:29.437Z,39.50
2022-08-05T07:25:57.079Z,39.00
2022-08-05T07:28:25.185Z,39.43
2022-08-05T07:30:55.068Z,40.50
2022-08-05T07:33:35.063Z,45.80
2022-08-05T07:36:21.182Z,43.90
2022-08-05T07:38:49.040Z,44.83
2022-08-05T07:42:13.395Z,49.70
2022-08-05T07:44:12.143Z,47.80
2022-08-05T07:46:41.414Z,50.90
2022-08-05T07:49:15.112Z,51.77
2022-08-05T07:51:53.544Z,49.47
2022-08-05T07:54:31.147Z,51.60
2022-08-05T07:57:16.904Z,51.67
2022-08-05T07:59:51.244Z,53.10
2022-08-05T08:02:18.319Z,55.17
2022-08-05T08:04:49.542Z,55.47
2022-08-05T08:07:18.565Z,53.37
2022-08-05T08:09:50.462Z,52.53
2022-08-05T08:12:35.259Z,50.70
2022-08-05T08:15:05.198Z,47.20
2022-08-05T08:17:40.558Z,50.23
2022-08-05T08:20:44.014Z,52.47
2022-08-05T08:23:03.364Z,58.67
2022-08-05T08:25:59.396Z,58.83
2022-08-05T08:28:18.972Z,58.10
2022-08-05T08:31:02.772Z,57.30
2022-08-05T08:33:36.117Z,64.57
2022-08-05T08:36:25.155Z,57.10
2022-08-05T08:38:55.578Z,55.87
2022-08-05T08:41:26.016Z,57.00
2022-08-05T08:45:19.918Z,57.57
2022-08-05T08:46:44.550Z,57.07
2022-08-05T08:50:14.138Z,54.40
2022-08-05T08:52:23.526Z,55.80
2022-08-05T08:54:55.110Z,55.10
2022-08-05T08:57:25.790Z,56.27
2022-08-05T09:00:09.991Z,52.27
2022-08-05T09:02:37.289Z,51.17
2022-08-05T09:05:17.369Z,51.23
2022-08-05T09:07:56.889Z,51.50
2022-08-05T09:10:27.698Z,47.30
2022-08-05T09:12:57.199Z,40.47
2022-08-05T09:15:32.110Z,35.20
2022-08-05T09:18:06.159Z,33.10
2022-08-05T09:20:38.043Z,31.70
2022-08-05T09:23:18.589Z,29.10
2022-08-05T09:26:02.328Z,25.87
2022-08-05T09:28:34.753Z,26.30
2022-08-05T09:31:22.988Z,24.90
2022-08-05T09:34:07.784Z,22.90
2022-08-05T09:36:55.129Z,22.30
2022-08-05T09:39:39.332Z,20.53
2022-08-05T09:42:24.068Z,20.17
2022-08-05T09:44:56.554Z,20.70
2022-08-05T09:47:26.076Z,20.00
2022-08-05T09:50:01.268Z,18.80
2022-08-05T09:52:35.065Z,21.97
2022-08-05T09:55:57.428Z,20.30
2022-08-05T09:57:58.627Z,21.30
2022-08-05T10:00:26.780Z,19.63
2022-08-05T10:02:58.116Z,21.90
2022-08-05T10:05:28.083Z,19.70
2022-08-05T10:08:37.008Z,19.90
2022-08-05T10:10:44.089Z,21.03
2022-08-05T10:13:11.805Z,19.83
2022-08-05T10:15:41.778Z,19.83
2022-08-05T10:18:16.944Z,17.53
2022-08-05T10:20:50.122Z,16.33
2022-08-05T10:23:34.126Z,15.13
2022-08-05T10:26:14.478Z,16.30
2022-08-05T10:28:43.881Z,14.67
2022-08-05T10:32:52.563Z,15.73
2022-08-05T10:34:01.066Z,14.10
2022-08-05T10:36:28.337Z,14.40
2022-08-05T10:39:05.111Z,12.40
2022-08-05T10:42:00.873Z,12.47
2022-08-05T10:44:29.375Z,10.37
2022-08-05T10:46:57.414Z,9.73
2022-08-05T10:49:33.295Z,10.50
2022-08-05T10:52:03.321Z,10.97
2022-08-05T10:55:03.012Z,8.00
2022-08-05T10:57:31.966Z,7.20
2022-08-05T11:00:29.270Z,6.07
2022-08-05T11:03:25.889Z,5.20
2022-08-05T11:06:15.382Z,5.90
2022-08-05T11:09:39.184Z,5.97
2022-08-05T11:12:24.772Z,6.30
2022-08-05T11:15:20.749Z,5.70
2022-08-05T11:17:56.878Z,5.97
2022-08-05T11:20:46.297Z,4.47
2022-08-05T11:24:03.875Z,5.17
2022-08-05T11:26:33.048Z,8.67
2022-08-05T11:29:11.646Z,5.67
2022-08-05T11:31:58.825Z,4.60
2022-08-05T11:34:47.473Z,4.30
2022-08-05T11:38:30.246Z,5.17
2022-08-05T11:41:12.704Z,5.00
2022-08-05T11:44:53.123Z,4.63
2022-08-05T11:47:17.352Z,5.03
2022-08-05T11:49:49.817Z,3.73
2022-08-05T11:52:29.297Z,4.63
2022-08-05T11:54:58.313Z,3.63
2022-08-05T11:57:30.541Z,3.93
2022-08-05T11:59:58.301Z,4.20
2022-08-05T12:02:33.088Z,3.43
2022-08-05T12:05:06.900Z,3.00
2022-08-05T12:08:07.900Z,3.10
2022-08-05T12:10:43.018Z,3.10
2022-08-05T12:13:15.799Z,2.83
2022-08-05T12:15:45.446Z,3.30
2022-08-05T12:18:33.546Z,2.37
2022-08-05T12:21:30.446Z,2.43
2022-08-05T12:24:04.570Z,2.13
2022-08-05T12:26:32.298Z,2.37
2022-08-05T12:28:59.962Z,2.20
2022-08-05T12:31:32.683Z,2.83
2022-08-05T12:34:20.283Z,2.43
2022-08-05T12:36:49.757Z,2.00
2022-08-05T12:39:17.698Z,2.10
2022-08-05T12:41:45.502Z,2.40
2022-08-05T12:44:28.583Z,2.53
2022-08-05T12:47:01.741Z,2.80
2022-08-05T12:50:03.507Z,2.90
2022-08-05T12:52:39.332Z,3.63
2022-08-05T12:55:33.022Z,4.93
2022-08-05T12:58:49.053Z,3.40
2022-08-05T13:02:01.886Z,3.40
2022-08-05T13:03:42.272Z,3.03
2022-08-05T13:06:17.534Z,3.13
2022-08-05T13:08:52.114Z,4.17
2022-08-05T13:11:47.006Z,3.20
2022-08-05T13:14:36.668Z,3.93
2022-08-05T13:17:16.719Z,4.30
2022-08-05T13:20:06.586Z,4.37
2022-08-05T13:22:40.059Z,4.20
2022-08-05T13:25:18.613Z,4.37
2022-08-05T13:27:51.595Z,3.77
2022-08-05T13:30:36.074Z,4.00
2022-08-05T13:33:05.930Z,4.27
2022-08-05T13:35:42.760Z,4.10
2022-08-05T13:38:28.069Z,3.90
2022-08-05T13:40:58.856Z,3.90
2022-08-05T13:43:44.791Z,4.70
2022-08-05T13:46:14.214Z,4.37
2022-08-05T13:48:57.268Z,4.00
2022-08-05T13:51:29.026Z,3.97
2022-08-05T13:53:57.939Z,4.00
2022-08-05T13:56:25.522Z,4.03
2022-08-05T13:58:53.469Z,3.87
2022-08-05T14:01:25.906Z,3.73
2022-08-05T14:04:22.464Z,3.20
2022-08-05T14:06:58.707Z,3.70
2022-08-05T14:09:46.088Z,3.30
2022-08-05T14:12:17.612Z,11.23
2022-08-05T14:14:45.875Z,3.30
2022-08-05T14:17:16.957Z,3.73
2022-08-05T14:19:55.361Z,3.80
2022-08-05T14:22:24.030Z,3.63
2022-08-05T14:24:57.547Z,3.80
2022-08-05T14:27:24.326Z,3.13
2022-08-05T14:29:56.307Z,3.60
2022-08-05T14:32:27.760Z,3.20
2022-08-05T14:34:57.035Z,3.57
2022-08-05T14:37:45.650Z,3.20
2022-08-05T14:40:14.036Z,3.27
2022-08-05T14:42:41.363Z,2.83
2022-08-05T14:45:10.089Z,2.33
2022-08-05T14:48:03.857Z,1.67
2022-08-05T14:50:25.297Z,2.00
2022-08-05T14:52:57.519Z,1.17
2022-08-05T14:55:28.633Z,1.60
2022-08-05T14:58:10.850Z,1.23
2022-08-05T15:00:58.742Z,1.50
2022-08-05T15:03:33.370Z,1.00
2022-08-05T15:06:13.114Z,1.30
2022-08-05T15:09:01.310Z,1.70
2022-08-05T15:11:51.611Z,1.10
2022-08-05T15:14:35.097Z,1.30
2022-08-05T15:17:09.817Z,1.20
2022-08-05T15:19:55.120Z,1.30
2022-08-05T15:22:22.225Z,1.23
2022-08-05T15:24:54.897Z,1.40
2022-08-05T15:27:21.629Z,1.27
2022-08-05T15:29:52.660Z,1.10
2022-08-05T15:32:21.182Z,1.13
2022-08-05T15:34:54.625Z,1.30
2022-08-05T15:38:08.444Z,1.13
2022-08-05T15:41:01.185Z,1.13
2022-08-05T15:43:07.928Z,1.00
2022-08-05T15:45:45.706Z,1.60
2022-08-05T15:48:14.524Z,1.20
2022-08-05T15:50:43.791Z,1.80
2022-08-05T15:53:13.230Z,1.40
2022-08-05T15:56:02.743Z,1.50
2022-08-05T15:58:29.239Z,1.73
2022-08-05T16:01:18.366Z,5.67
2022-08-05T16:03:50.320Z,4.40
2022-08-05T16:06:20.198Z,2.40
2022-08-05T16:08:47.788Z,2.03
2022-08-05T16:11:17.131Z,1.80
2022-08-05T16:13:44.235Z,1.43
2022-08-05T16:16:12.159Z,1.40
2022-08-05T16:18:51.733Z,2.47
2022-08-05T16:21:19.371Z,1.70
2022-08-05T16:23:54.582Z,2.60
2022-08-05T16:26:26.631Z,4.57
2022-08-05T16:28:54.606Z,3.30
2022-08-05T16:31:21.771Z,8.47
2022-08-05T16:33:49.303Z,6.30
2022-08-05T16:36:20.504Z,8.33
2022-08-05T16:38:54.893Z,6.27
2022-08-05T16:42:14.562Z,4.43
2022-08-05T16:44:15.685Z,3.77
2022-08-05T16:46:55.715Z,5.87
2022-08-05T16:49:23.720Z,6.10
2022-08-05T16:51:51.345Z,7.77
2022-08-05T16:54:28.878Z,8.30
2022-08-05T16:56:58.913Z,5.90
2022-08-05T16:59:27.705Z,5.37
2022-08-05T17:01:57.460Z,9.23
2022-08-05T17:04:28.349Z,2.63
2022-08-05T17:07:03.289Z,1.40
2022-08-05T17:09:38.928Z,1.23
2022-08-05T17:12:18.146Z,0.83
2022-08-05T17:14:49.769Z,1.00
2022-08-05T17:17:16.558Z,6.03
2022-08-05T17:19:46.503Z,3.00
2022-08-05T17:22:17.833Z,1.03
2022-08-05T17:24:57.702Z,1.03
2022-08-05T17:27:33.875Z,0.90
2022-08-05T17:30:02.370Z,4.70
2022-08-05T17:32:29.875Z,1.73
2022-08-05T17:34:58.244Z,1.23
2022-08-05T17:37:40.578Z,0.90
2022-08-05T17:40:14.874Z,1.10
2022-08-05T17:42:49.855Z,1.03
2022-08-05T17:45:22.551Z,1.10
2022-08-05T17:47:55.471Z,3.30
2022-08-05T17:50:30.427Z,6.80
2022-08-05T17:52:59.432Z,0.90
2022-08-05T17:55:34.461Z,5.60
2022-08-05T17:58:06.947Z,1.30
2022-08-05T18:00:36.154Z,2.17
2022-08-05T18:03:08.036Z,0.97
2022-08-05T18:05:36.127Z,0.60
2022-08-05T18:08:03.590Z,1.30
2022-08-05T18:10:33.466Z,0.80
2022-08-05T18:13:02.011Z,0.90
2022-08-05T18:15:35.121Z,0.80
2022-08-05T18:18:11.115Z,1.87
2022-08-05T18:20:38.419Z,0.80
2022-08-05T18:23:12.001Z,0.90
2022-08-05T18:25:45.239Z,0.70
2022-08-05T18:28:16.213Z,0.80
2022-08-05T18:30:51.285Z,1.33
2022-08-05T18:33:22.756Z,1.80
2022-08-05T18:36:04.314Z,1.03
2022-08-05T18:38:36.265Z,1.33
2022-08-05T18:41:55.981Z,1.27
2022-08-05T18:43:51.302Z,0.80
2022-08-05T18:46:20.111Z,1.10
2022-08-05T18:48:52.136Z,0.80
2022-08-05T18:52:03.886Z,2.50
2022-08-05T18:54:30.887Z,1.33
2022-08-05T18:57:01.807Z,1.00
2022-08-05T18:59:44.082Z,1.20
2022-08-05T19:02:27.142Z,0.90
2022-08-05T19:05:02.225Z,1.60
2022-08-05T19:07:46.310Z,1.10
2022-08-05T19:10:17.504Z,0.87
2022-08-05T19:12:46.225Z,0.77
2022-08-05T19:15:45.114Z,1.00
2022-08-05T19:18:10.494Z,1.00
2022-08-05T19:20:46.592Z,1.20
2022-08-05T19:24:04.208Z,0.87
2022-08-05T19:26:02.961Z,0.80
2022-08-05T19:28:32.998Z,1.30
2022-08-05T19:31:00.333Z,0.67
2022-08-05T19:33:35.625Z,0.80
2022-08-05T19:36:07.134Z,1.03
2022-08-05T19:38:36.350Z,1.03
2022-08-05T19:41:06.682Z,1.13
2022-08-05T19:44:07.047Z,1.23
2022-08-05T19:46:30.593Z,1.10
2022-08-05T19:49:03.368Z,0.70
2022-08-05T19:52:05.420Z,1.00
2022-08-05T19:54:25.564Z,0.97
2022-08-05T19:56:59.025Z,1.27
2022-08-05T19:59:55.577Z,0.80
2022-08-05T20:02:14.803Z,0.90
2022-08-05T20:04:45.803Z,1.00
2022-08-05T20:07:13.880Z,0.90
2022-08-05T20:09:54.687Z,1.10
2022-08-05T20:12:24.526Z,1.13
2022-08-05T20:14:52.895Z,0.83
2022-08-05T20:17:23.575Z,0.83
2022-08-05T20:19:51.065Z,1.00
2022-08-05T20:22:26.652Z,1.13
2022-08-05T20:24:55.268Z,0.70
2022-08-05T20:27:26.646Z,0.80
2022-08-05T20:29:57.574Z,1.00
2022-08-05T20:32:26.476Z,0.90
2022-08-05T20:34:53.633Z,0.83
2022-08-05T20:38:06.639Z,0.70
2022-08-05T20:40:08.547Z,1.20
2022-08-05T20:42:35.611Z,0.70
2022-08-05T20:45:03.415Z,1.00
2022-08-05T20:47:32.184Z,1.20
2022-08-05T20:49:59.760Z,0.93
2022-08-05T20:52:29.432Z,0.60
2022-08-05T20:55:54.270Z,1.10
2022-08-05T20:57:44.845Z,1.07
2022-08-05T21:00:41.157Z,0.70
2022-08-05T21:03:06.363Z,0.87
2022-08-05T21:05:53.484Z,0.77
2022-08-05T21:08:28.184Z,0.90
2022-08-05T21:11:10.011Z,1.00
2022-08-05T21:13:47.784Z,0.70
2022-08-05T21:16:29.326Z,0.90
2022-08-05T21:19:00.070Z,0.87
2022-08-05T21:21:44.026Z,1.10
2022-08-05T21:24:15.446Z,1.33
2022-08-05T21:26:45.937Z,1.63
2022-08-05T21:29:17.342Z,1.10
2022-08-05T21:31:44.308Z,1.00
2022-08-05T21:34:11.530Z,1.20
2022-08-05T21:36:39.479Z,1.60
2022-08-05T21:39:09.971Z,1.93
2022-08-05T21:41:41.663Z,1.20
2022-08-05T21:44:19.222Z,1.23
2022-08-05T21:46:53.986Z,1.23
2022-08-05T21:49:58.813Z,1.10
2022-08-05T21:52:22.219Z,0.93
2022-08-05T21:54:55.776Z,1.27
2022-08-05T21:57:31.466Z,1.20
2022-08-05T22:00:05.488Z,0.93
2022-08-05T22:02:33.803Z,0.93
2022-08-05T22:05:00.624Z,1.33
2022-08-05T22:07:40.053Z,1.67
2022-08-05T22:10:16.320Z,0.90
2022-08-05T22:12:45.067Z,1.10
2022-08-05T22:16:00.852Z,1.90
2022-08-05T22:18:06.317Z,1.23
2022-08-05T22:20:35.718Z,1.00
2022-08-05T22:23:25.397Z,0.80
2022-08-05T22:26:31.010Z,1.10
2022-08-05T22:28:58.136Z,1.25
2022-08-05T22:31:29.982Z,1.33
2022-08-05T22:34:01.495Z,1.23
2022-08-05T22:36:29.233Z,1.30
2022-08-05T22:38:56.802Z,0.90
2022-08-05T22:42:04.807Z,1.13
2022-08-05T22:44:12.131Z,1.13
2022-08-05T22:46:40.639Z,1.13
2022-08-05T22:49:23.307Z,1.03
2022-08-05T22:52:05.321Z,1.10
2022-08-05T22:54:38.816Z,1.00
2022-08-05T22:57:06.823Z,0.80
2022-08-05T22:59:44.114Z,1.30
2022-08-05T23:02:16.610Z,1.30
2022-08-05T23:04:51.665Z,1.00
2022-08-05T23:07:21.882Z,1.07
2022-08-05T23:09:53.464Z,1.13
2022-08-05T23:12:28.585Z,1.10
2022-08-05T23:14:56.174Z,1.43
2022-08-05T23:17:32.728Z,1.30
2022-08-05T23:20:16.483Z,1.00
2022-08-05T23:22:47.475Z,1.13
2022-08-05T23:25:53.687Z,1.10
2022-08-05T23:28:07.569Z,1.20
2022-08-05T23:30:40.539Z,1.10
2022-08-05T23:33:21.859Z,1.40
2022-08-05T23:35:56.150Z,1.37
2022-08-05T23:38:24.109Z,1.00
2022-08-05T23:40:52.801Z,1.10
2022-08-05T23:43:25.648Z,1.10
2022-08-05T23:46:20.829Z,1.37
2022-08-05T23:49:00.035Z,1.20
2022-08-05T23:51:52.467Z,1.00
2022-08-05T23:54:26.615Z,1.20
2022-08-05T23:57:03.532Z,1.63
